Аэропорт: Большое Савино. Пермь

ICAO: USPP

METAR:
2022-06-26 11:30:00
USPP 261130Z 34005MPS 300V020 9999 BKN030 12/05 Q1012 R21/190055 NOSIG RMK QFE748
METAR:
2022-06-26 10:55:00
TAF USPP 261055Z 2612/2712 33005G15MPS 9999 BKN030 TEMPO 2612/2616 -SHRA BKN016CB BECMG 2617/2618 29003G10MPS SCT040 BECMG 2703/2704 25003G13MPS BKN020